createdAt,value
2022-12-31T00:01:14.787Z,40.20
2022-12-31T00:03:43.671Z,47.50
2022-12-31T00:06:20.860Z,42.10
2022-12-31T00:08:50.584Z,43.90
2022-12-31T00:11:19.658Z,38.70
2022-12-31T00:13:48.349Z,44.90
2022-12-31T00:16:26.268Z,49.60
2022-12-31T00:18:59.340Z,42.80
2022-12-31T00:21:29.985Z,46.00
2022-12-31T00:23:58.560Z,49.40
2022-12-31T00:26:29.834Z,49.10
2022-12-31T00:28:59.829Z,59.50
2022-12-31T00:31:31.572Z,61.70
2022-12-31T00:34:00.463Z,53.10
2022-12-31T00:36:34.989Z,62.40
2022-12-31T00:39:06.007Z,59.20
2022-12-31T00:44:02.399Z,55.10
2022-12-31T00:46:32.081Z,59.00
2022-12-31T00:49:00.388Z,55.60
2022-12-31T00:51:29.572Z,52.00
2022-12-31T00:53:58.355Z,44.50
2022-12-31T00:56:29.135Z,49.20
2022-12-31T00:58:58.912Z,46.00
2022-12-31T01:01:30.133Z,50.80
2022-12-31T01:04:01.445Z,47.40
2022-12-31T01:06:29.883Z,50.00
2022-12-31T01:08:58.580Z,41.90
2022-12-31T01:11:29.672Z,40.80
2022-12-31T01:14:06.767Z,44.30
2022-12-31T01:16:37.450Z,43.50
2022-12-31T01:19:10.264Z,42.30
2022-12-31T01:21:40.122Z,41.90
2022-12-31T01:24:10.042Z,39.70
2022-12-31T01:26:38.318Z,44.80
2022-12-31T01:29:07.928Z,46.70
2022-12-31T01:31:38.120Z,49.10
2022-12-31T01:34:07.874Z,46.10
2022-12-31T01:36:38.083Z,48.30
2022-12-31T01:39:08.420Z,45.80
2022-12-31T01:41:40.047Z,51.20
2022-12-31T01:44:14.276Z,55.00
2022-12-31T01:46:45.512Z,56.20
2022-12-31T01:49:17.579Z,63.60
2022-12-31T01:51:51.398Z,59.00
2022-12-31T01:54:22.804Z,54.50
2022-12-31T01:56:53.549Z,66.50
2022-12-31T01:59:23.399Z,54.00
2022-12-31T02:01:55.007Z,55.50
2022-12-31T02:04:26.083Z,39.80
2022-12-31T02:06:58.871Z,42.40
2022-12-31T02:09:27.246Z,39.00
2022-12-31T02:11:55.528Z,49.50
2022-12-31T02:14:34.056Z,49.20
2022-12-31T02:17:17.597Z,55.00
2022-12-31T02:20:17.084Z,39.10
2022-12-31T02:23:13.827Z,47.90
2022-12-31T02:26:16.532Z,48.10
2022-12-31T02:29:08.853Z,40.80
2022-12-31T02:31:49.009Z,44.10
2022-12-31T02:35:07.782Z,35.40
2022-12-31T02:37:39.334Z,35.20
2022-12-31T02:40:11.865Z,38.50
2022-12-31T02:42:40.072Z,43.30
2022-12-31T02:45:12.645Z,41.30
2022-12-31T02:47:43.592Z,47.40
2022-12-31T02:50:37.163Z,33.50
2022-12-31T02:53:40.569Z,33.70
2022-12-31T02:56:15.394Z,42.90
2022-12-31T02:59:27.292Z,46.40
2022-12-31T03:02:19.902Z,43.00
2022-12-31T03:04:58.969Z,37.50
2022-12-31T03:07:29.889Z,46.00
2022-12-31T03:12:48.453Z,43.20
2022-12-31T03:15:26.304Z,47.90
2022-12-31T03:18:06.748Z,47.60
2022-12-31T03:21:00.218Z,46.50
2022-12-31T03:23:30.252Z,54.40
2022-12-31T03:25:59.518Z,50.30
2022-12-31T03:32:28.346Z,43.40
2022-12-31T03:34:56.514Z,42.30
2022-12-31T03:37:24.712Z,48.70
2022-12-31T03:39:52.722Z,44.20
2022-12-31T03:42:20.826Z,41.80
2022-12-31T03:44:48.968Z,46.00
2022-12-31T03:47:17.029Z,38.50
2022-12-31T03:49:45.212Z,38.20
2022-12-31T03:52:13.335Z,33.10
2022-12-31T03:54:41.337Z,40.00
2022-12-31T03:57:09.796Z,38.00
2022-12-31T03:59:37.912Z,39.50
2022-12-31T04:02:06.745Z,36.70
2022-12-31T04:04:34.834Z,39.60
2022-12-31T04:07:03.042Z,38.60
2022-12-31T04:09:31.195Z,44.10
2022-12-31T04:11:59.317Z,37.20
2022-12-31T04:14:27.461Z,36.40
2022-12-31T04:16:55.635Z,42.20
2022-12-31T04:19:23.859Z,34.20
2022-12-31T04:21:52.056Z,44.00
2022-12-31T04:24:20.200Z,35.20
2022-12-31T04:26:48.349Z,44.50
2022-12-31T04:29:16.594Z,31.90
2022-12-31T04:31:44.740Z,32.20
2022-12-31T04:34:12.884Z,32.60
2022-12-31T04:36:40.907Z,31.10
2022-12-31T04:39:09.149Z,33.10
2022-12-31T04:41:37.227Z,34.70
2022-12-31T04:44:05.361Z,35.10
2022-12-31T04:46:34.135Z,34.60
2022-12-31T04:49:21.019Z,34.70
2022-12-31T04:51:49.048Z,42.00
2022-12-31T04:54:17.088Z,36.40
2022-12-31T04:56:45.224Z,33.80
2022-12-31T04:59:13.360Z,36.20
2022-12-31T05:01:41.845Z,35.40
2022-12-31T05:04:10.100Z,44.20
2022-12-31T05:06:38.222Z,33.00
2022-12-31T05:09:06.377Z,33.70
2022-12-31T05:11:35.884Z,39.10
2022-12-31T05:14:04.002Z,31.50
2022-12-31T05:16:32.202Z,38.30
2022-12-31T05:19:00.370Z,33.10
2022-12-31T05:21:28.564Z,34.60
2022-12-31T05:23:56.697Z,34.40
2022-12-31T05:26:24.768Z,31.50
2022-12-31T05:28:52.845Z,33.10
2022-12-31T05:31:21.072Z,36.80
2022-12-31T05:33:49.182Z,30.40
2022-12-31T05:36:17.247Z,32.50
2022-12-31T05:38:45.395Z,34.30
2022-12-31T05:41:13.463Z,33.40
2022-12-31T05:43:41.599Z,32.40
2022-12-31T05:46:09.819Z,33.10
2022-12-31T05:48:38.008Z,35.50
2022-12-31T05:51:06.352Z,31.30
2022-12-31T05:53:34.725Z,35.10
2022-12-31T05:56:02.858Z,37.50
2022-12-31T05:58:31.013Z,34.10
2022-12-31T06:00:59.158Z,34.10
2022-12-31T06:03:27.316Z,37.70
2022-12-31T06:05:55.471Z,38.90
2022-12-31T06:08:24.158Z,41.20
2022-12-31T06:10:52.206Z,39.20
2022-12-31T06:13:20.262Z,37.30
2022-12-31T06:15:48.391Z,38.80
2022-12-31T06:18:16.458Z,38.30
2022-12-31T06:20:44.548Z,41.30
2022-12-31T06:23:12.674Z,38.90
2022-12-31T06:25:40.846Z,38.60
2022-12-31T06:28:12.153Z,41.50
2022-12-31T06:30:46.064Z,37.20
2022-12-31T06:33:14.298Z,37.30
2022-12-31T06:35:42.379Z,40.70
2022-12-31T06:38:10.485Z,36.70
2022-12-31T06:40:38.496Z,38.70
2022-12-31T06:43:06.595Z,37.90
2022-12-31T06:45:34.727Z,42.50
2022-12-31T06:48:02.852Z,38.70
2022-12-31T06:50:30.943Z,38.10
2022-12-31T06:52:59.061Z,33.40
2022-12-31T06:55:27.521Z,40.30
2022-12-31T06:57:55.946Z,39.30
2022-12-31T07:00:24.236Z,38.60
2022-12-31T07:03:01.824Z,37.30
2022-12-31T07:05:53.610Z,43.20
2022-12-31T07:08:54.000Z,37.50
2022-12-31T07:11:26.505Z,34.90
2022-12-31T07:14:11.805Z,32.90
2022-12-31T07:16:52.041Z,35.80
2022-12-31T07:19:20.033Z,35.40
2022-12-31T07:21:49.475Z,33.70
2022-12-31T07:24:17.945Z,35.40
2022-12-31T07:27:01.331Z,35.50
2022-12-31T07:29:29.419Z,42.60
2022-12-31T07:32:19.077Z,36.80
2022-12-31T07:35:09.581Z,39.80
2022-12-31T07:37:46.792Z,38.40
2022-12-31T07:41:09.948Z,37.70
2022-12-31T07:44:27.853Z,41.90
2022-12-31T07:47:01.299Z,34.00
2022-12-31T07:49:31.448Z,43.60
2022-12-31T07:51:59.828Z,45.70
2022-12-31T07:54:27.938Z,39.60
2022-12-31T07:56:56.109Z,39.70
2022-12-31T07:59:51.316Z,41.90
2022-12-31T08:02:30.450Z,43.40
2022-12-31T08:05:16.649Z,36.00
2022-12-31T08:07:54.860Z,41.30
2022-12-31T08:10:22.884Z,42.20
2022-12-31T08:12:54.481Z,40.80
2022-12-31T08:15:28.516Z,35.80
2022-12-31T08:17:58.722Z,38.70
2022-12-31T08:20:27.443Z,36.40
2022-12-31T08:23:04.183Z,39.20
2022-12-31T08:25:37.986Z,37.60
2022-12-31T08:28:11.669Z,39.80
2022-12-31T08:30:58.193Z,38.30
2022-12-31T08:33:39.751Z,36.80
2022-12-31T08:36:33.354Z,41.90
2022-12-31T08:39:04.227Z,39.40
2022-12-31T08:44:33.561Z,34.10
2022-12-31T09:05:09.321Z,38.20
2022-12-31T09:07:40.596Z,35.20
2022-12-31T09:10:25.028Z,42.70
2022-12-31T09:13:02.729Z,42.70
2022-12-31T09:15:39.601Z,50.80
2022-12-31T09:18:10.541Z,44.50
2022-12-31T09:20:43.901Z,39.10
2022-12-31T09:23:14.171Z,44.90
2022-12-31T09:25:52.172Z,48.00
2022-12-31T09:28:32.444Z,34.90
2022-12-31T09:31:11.564Z,41.50
2022-12-31T09:33:50.382Z,36.00
2022-12-31T09:36:43.847Z,42.80
2022-12-31T09:39:33.940Z,40.90
2022-12-31T09:42:08.152Z,36.20
2022-12-31T09:45:16.673Z,37.10
2022-12-31T09:47:51.532Z,43.90
2022-12-31T09:50:38.435Z,39.70
2022-12-31T09:53:41.304Z,38.20
2022-12-31T09:56:26.291Z,35.10
2022-12-31T09:59:13.799Z,33.70
2022-12-31T10:01:59.701Z,34.00
2022-12-31T10:04:34.902Z,34.00
2022-12-31T10:07:26.352Z,34.80
2022-12-31T10:10:20.945Z,37.30
2022-12-31T10:12:58.640Z,35.60
2022-12-31T10:16:01.121Z,32.90
2022-12-31T10:18:50.597Z,41.30
2022-12-31T10:21:33.311Z,36.50
2022-12-31T10:24:22.606Z,40.60
2022-12-31T10:27:03.249Z,43.20
2022-12-31T10:30:13.510Z,38.80
2022-12-31T10:32:50.684Z,46.40
2022-12-31T10:35:44.279Z,42.40
2022-12-31T10:38:44.812Z,44.20
2022-12-31T10:41:25.291Z,40.50
2022-12-31T10:43:56.204Z,43.70
2022-12-31T10:49:17.735Z,41.10
2022-12-31T10:52:07.522Z,41.80
2022-12-31T10:54:38.766Z,38.00
2022-12-31T10:57:31.617Z,36.60
2022-12-31T11:00:48.755Z,34.70
2022-12-31T11:03:29.691Z,41.10
2022-12-31T11:06:26.473Z,36.80
2022-12-31T11:09:34.862Z,32.10
2022-12-31T11:12:24.759Z,34.50
2022-12-31T11:15:11.784Z,33.60
2022-12-31T11:18:18.760Z,33.60
2022-12-31T11:21:14.833Z,26.10
2022-12-31T11:24:13.783Z,25.60
2022-12-31T11:27:20.154Z,26.50
2022-12-31T11:30:13.208Z,36.70
2022-12-31T11:33:10.578Z,31.90
2022-12-31T11:35:47.768Z,40.30
2022-12-31T11:38:55.380Z,35.60
2022-12-31T11:41:33.872Z,35.30
2022-12-31T11:44:11.162Z,40.70
2022-12-31T11:47:11.791Z,35.10
2022-12-31T11:49:54.505Z,41.00
2022-12-31T11:52:49.321Z,36.60
2022-12-31T11:55:49.432Z,38.70
2022-12-31T11:58:28.834Z,42.00
2022-12-31T12:01:01.082Z,40.90
2022-12-31T12:03:29.835Z,45.70
2022-12-31T12:05:59.245Z,41.80
2022-12-31T12:08:32.248Z,42.10
2022-12-31T12:11:06.840Z,39.90
2022-12-31T12:13:35.528Z,43.70
2022-12-31T12:16:07.666Z,36.80
2022-12-31T12:18:41.229Z,45.60
2022-12-31T12:21:16.039Z,42.00
2022-12-31T12:23:56.834Z,45.20
2022-12-31T12:26:45.875Z,47.40
2022-12-31T12:29:28.594Z,46.50
2022-12-31T12:32:05.960Z,46.00
2022-12-31T12:34:36.931Z,42.00
2022-12-31T12:37:22.290Z,41.90
2022-12-31T12:40:06.030Z,44.40
2022-12-31T12:42:34.297Z,44.70
2022-12-31T12:45:07.093Z,43.10
2022-12-31T12:47:35.897Z,43.80
2022-12-31T12:50:04.875Z,44.90
2022-12-31T12:53:06.017Z,41.20
2022-12-31T12:55:40.127Z,37.70
2022-12-31T12:58:44.452Z,40.00
2022-12-31T13:01:25.134Z,33.90
2022-12-31T13:07:25.672Z,31.40
2022-12-31T13:10:35.563Z,33.20
2022-12-31T13:13:24.369Z,33.10
2022-12-31T13:16:08.509Z,32.70
2022-12-31T13:18:45.732Z,34.80
2022-12-31T13:21:53.140Z,36.90
2022-12-31T13:24:21.282Z,33.10
2022-12-31T13:27:20.596Z,34.40
2022-12-31T13:29:49.988Z,32.90
2022-12-31T13:32:23.780Z,33.40
2022-12-31T13:34:56.674Z,30.50
2022-12-31T13:37:34.891Z,34.20
2022-12-31T13:40:24.166Z,33.30
2022-12-31T13:42:57.365Z,34.60
2022-12-31T13:45:31.316Z,36.30
2022-12-31T13:48:06.586Z,34.40
2022-12-31T13:51:00.794Z,35.20
2022-12-31T13:53:47.095Z,34.70
2022-12-31T13:56:24.197Z,37.20
2022-12-31T13:59:00.648Z,30.40
2022-12-31T14:01:34.348Z,35.20
2022-12-31T14:04:14.701Z,32.30
2022-12-31T14:06:52.914Z,36.00
2022-12-31T14:09:30.647Z,35.90
2022-12-31T14:12:07.586Z,36.10
2022-12-31T14:15:17.440Z,32.00
2022-12-31T14:18:14.908Z,32.00
2022-12-31T14:20:50.860Z,29.50
2022-12-31T14:23:34.496Z,29.50
2022-12-31T14:26:07.960Z,30.10
2022-12-31T14:29:02.486Z,32.60
2022-12-31T14:31:49.154Z,34.20
2022-12-31T14:34:39.485Z,31.20
2022-12-31T14:37:29.284Z,30.90
2022-12-31T14:40:13.016Z,34.40
2022-12-31T14:43:05.047Z,32.70
2022-12-31T14:45:55.231Z,32.90
2022-12-31T14:48:52.286Z,33.80
2022-12-31T14:51:20.782Z,37.70
2022-12-31T14:53:54.687Z,33.20
2022-12-31T14:56:42.692Z,29.30
2022-12-31T14:59:35.618Z,29.80
2022-12-31T15:02:31.120Z,27.30
2022-12-31T15:05:30.392Z,27.50
2022-12-31T15:09:08.180Z,33.00
2022-12-31T15:11:43.238Z,27.20
2022-12-31T15:14:37.633Z,27.60
2022-12-31T15:17:17.266Z,31.20
2022-12-31T15:20:17.545Z,29.60
2022-12-31T15:22:48.028Z,27.80
2022-12-31T15:25:40.833Z,32.30
2022-12-31T15:28:31.894Z,24.80
2022-12-31T15:31:20.068Z,29.60
2022-12-31T15:34:01.427Z,28.20
2022-12-31T15:36:35.933Z,26.40
2022-12-31T15:39:25.959Z,28.70
2022-12-31T15:42:36.183Z,27.20
2022-12-31T15:44:57.191Z,27.20
2022-12-31T15:47:33.210Z,27.10
2022-12-31T15:50:22.843Z,25.10
2022-12-31T15:52:53.860Z,29.10
2022-12-31T15:55:38.935Z,34.00
2022-12-31T15:58:30.153Z,28.50
2022-12-31T16:01:22.035Z,26.80
2022-12-31T16:04:01.118Z,30.40
2022-12-31T16:06:31.628Z,24.40
2022-12-31T16:09:00.222Z,25.60
2022-12-31T16:11:30.631Z,25.10
2022-12-31T16:13:59.985Z,28.30
2022-12-31T16:16:31.650Z,23.90
2022-12-31T16:19:00.910Z,23.90
2022-12-31T16:21:34.863Z,24.80
2022-12-31T16:24:30.438Z,26.40
2022-12-31T16:27:09.538Z,24.80
2022-12-31T16:29:42.347Z,24.40
2022-12-31T16:32:20.040Z,25.10
2022-12-31T16:34:48.322Z,23.80
2022-12-31T16:37:19.258Z,25.70
2022-12-31T16:39:56.457Z,25.80
2022-12-31T16:42:27.339Z,25.70
2022-12-31T16:44:57.745Z,24.80
2022-12-31T16:47:36.750Z,27.90
2022-12-31T16:50:16.592Z,32.70
2022-12-31T16:52:50.900Z,27.50
2022-12-31T16:55:25.340Z,29.30
2022-12-31T16:58:02.148Z,25.30
2022-12-31T17:00:30.598Z,27.10
2022-12-31T17:03:05.235Z,25.40
2022-12-31T17:05:36.452Z,28.60
2022-12-31T17:15:22.114Z,26.10
2022-12-31T17:17:55.249Z,26.30
2022-12-31T17:20:27.307Z,27.50
2022-12-31T17:22:59.917Z,26.20
2022-12-31T17:25:33.346Z,27.10
2022-12-31T17:28:07.451Z,26.50
2022-12-31T17:30:40.601Z,30.30
2022-12-31T17:33:14.915Z,30.50
2022-12-31T17:35:44.826Z,30.60
2022-12-31T17:38:22.115Z,31.40
2022-12-31T17:40:54.732Z,27.40
2022-12-31T17:43:23.970Z,35.10
2022-12-31T17:45:54.601Z,32.30
2022-12-31T17:48:25.112Z,36.20
2022-12-31T17:50:56.645Z,33.30
2022-12-31T17:53:25.400Z,36.30
2022-12-31T17:55:56.679Z,34.00
2022-12-31T17:58:30.119Z,34.90
2022-12-31T18:00:59.727Z,32.00
2022-12-31T18:03:28.126Z,33.90
2022-12-31T18:05:56.515Z,32.50
2022-12-31T18:08:24.999Z,28.30
2022-12-31T18:10:54.713Z,31.40
2022-12-31T18:13:25.543Z,42.60
2022-12-31T18:18:26.512Z,34.10
2022-12-31T18:21:01.400Z,35.60
2022-12-31T18:23:35.857Z,37.00
2022-12-31T18:26:04.232Z,34.70
2022-12-31T18:28:32.819Z,31.30
2022-12-31T18:31:01.016Z,34.30
2022-12-31T18:33:29.572Z,35.90
2022-12-31T18:36:12.171Z,34.90
2022-12-31T18:38:41.628Z,36.20
2022-12-31T18:41:29.230Z,37.00
2022-12-31T18:43:57.607Z,38.00
2022-12-31T18:46:27.307Z,36.90
2022-12-31T18:48:55.792Z,39.80
2022-12-31T18:51:31.354Z,33.90
2022-12-31T18:54:05.035Z,35.90
2022-12-31T18:56:33.107Z,42.00
2022-12-31T18:59:02.921Z,40.30
2022-12-31T19:01:37.178Z,35.60
2022-12-31T19:04:20.044Z,38.50
2022-12-31T19:06:53.251Z,41.30
2022-12-31T19:12:14.488Z,32.00
2022-12-31T19:14:42.793Z,33.60
2022-12-31T19:19:38.133Z,34.40
2022-12-31T19:22:06.473Z,32.40
2022-12-31T19:24:34.843Z,35.90
2022-12-31T19:27:03.016Z,41.40
2022-12-31T19:29:31.395Z,36.80
2022-12-31T19:32:02.455Z,46.10
2022-12-31T19:34:30.814Z,39.90
2022-12-31T19:36:59.195Z,43.70
2022-12-31T19:39:27.590Z,40.80
2022-12-31T19:41:59.231Z,38.30
2022-12-31T19:44:28.149Z,44.70
2022-12-31T19:46:56.504Z,46.70
2022-12-31T19:49:24.585Z,42.40
2022-12-31T19:51:52.880Z,40.90
2022-12-31T19:54:21.945Z,37.30
2022-12-31T19:56:50.223Z,38.90
2022-12-31T19:59:18.708Z,39.60
2022-12-31T20:01:47.082Z,37.60
2022-12-31T20:04:15.611Z,36.30
2022-12-31T20:06:43.847Z,35.90
2022-12-31T20:09:11.906Z,49.90
2022-12-31T20:11:39.952Z,39.10
2022-12-31T20:14:08.340Z,38.60
2022-12-31T20:16:36.477Z,41.40
2022-12-31T20:19:06.741Z,40.00
2022-12-31T20:21:34.757Z,30.00
2022-12-31T20:24:02.814Z,26.90
2022-12-31T20:26:31.182Z,29.70
2022-12-31T20:28:59.297Z,28.90
2022-12-31T20:31:27.479Z,31.20
2022-12-31T20:33:55.840Z,26.30
2022-12-31T20:36:24.377Z,27.20
2022-12-31T20:38:52.504Z,26.20
2022-12-31T20:41:22.841Z,30.50
2022-12-31T20:43:51.581Z,24.60
2022-12-31T20:46:25.201Z,25.00
2022-12-31T20:48:56.313Z,28.00
2022-12-31T20:51:26.006Z,28.60
2022-12-31T20:53:56.561Z,31.60
2022-12-31T20:56:27.505Z,27.80
2022-12-31T20:58:55.776Z,28.60
2022-12-31T21:01:25.638Z,24.70
2022-12-31T21:04:10.843Z,26.70
2022-12-31T21:06:38.928Z,29.00
2022-12-31T21:09:08.261Z,26.80
2022-12-31T21:11:55.471Z,25.80
2022-12-31T21:14:23.570Z,23.70
2022-12-31T21:16:51.695Z,28.10
2022-12-31T21:19:19.784Z,25.90
2022-12-31T21:21:48.415Z,36.90
2022-12-31T21:24:23.341Z,27.80
2022-12-31T21:26:54.886Z,32.60
2022-12-31T21:29:23.134Z,32.50
2022-12-31T21:31:51.260Z,31.00
2022-12-31T21:34:19.321Z,27.60
2022-12-31T21:36:47.492Z,34.00
2022-12-31T21:39:15.646Z,32.60
2022-12-31T21:41:52.889Z,31.80
2022-12-31T21:44:25.901Z,29.90
2022-12-31T21:47:34.931Z,30.60
2022-12-31T21:50:04.688Z,31.90
2022-12-31T21:52:35.218Z,28.40
2022-12-31T21:55:24.498Z,42.20
2022-12-31T21:58:24.755Z,34.20
2022-12-31T22:00:59.879Z,50.60
2022-12-31T22:03:28.706Z,55.10
2022-12-31T22:06:12.379Z,47.70
2022-12-31T22:08:41.764Z,50.80
2022-12-31T22:11:11.326Z,49.30
2022-12-31T22:13:40.249Z,51.20
2022-12-31T22:16:08.540Z,48.50
2022-12-31T22:18:39.294Z,49.40
2022-12-31T22:21:22.244Z,47.00
2022-12-31T22:23:52.607Z,48.90
2022-12-31T22:26:23.716Z,42.90
2022-12-31T22:28:52.409Z,41.70
2022-12-31T22:31:24.727Z,40.70
2022-12-31T22:33:53.159Z,34.30
2022-12-31T22:36:23.160Z,36.40
2022-12-31T22:38:55.941Z,35.80
2022-12-31T22:41:25.326Z,33.10
2022-12-31T22:44:02.624Z,35.10
2022-12-31T22:46:33.426Z,26.80
2022-12-31T22:49:03.654Z,30.70
2022-12-31T22:51:55.741Z,25.70
2022-12-31T22:54:20.410Z,30.40
2022-12-31T22:56:48.497Z,27.90
2022-12-31T22:59:16.510Z,27.20
2022-12-31T23:01:44.713Z,27.70
2022-12-31T23:04:12.899Z,26.20
2022-12-31T23:06:47.449Z,27.60
2022-12-31T23:09:35.474Z,25.10
2022-12-31T23:12:06.807Z,33.20
2022-12-31T23:14:54.116Z,24.40
2022-12-31T23:17:43.810Z,29.60
2022-12-31T23:20:36.981Z,26.90
2022-12-31T23:23:07.972Z,24.90
2022-12-31T23:25:44.745Z,27.80
2022-12-31T23:28:16.043Z,25.60
2022-12-31T23:30:44.447Z,22.70
2022-12-31T23:33:18.091Z,30.20
2022-12-31T23:35:46.571Z,28.60
2022-12-31T23:38:17.817Z,23.70
2022-12-31T23:40:46.181Z,25.80
2022-12-31T23:43:22.029Z,33.80
2022-12-31T23:45:51.287Z,28.00
2022-12-31T23:48:19.514Z,37.30
2022-12-31T23:50:53.577Z,45.90
2022-12-31T23:53:23.622Z,43.50
2022-12-31T23:55:52.768Z,44.70
2022-12-31T23:58:21.953Z,49.50
